sensor_id;sensor_type;location;lat;lon;timestamp;pressure;altitude;pressure_sealevel;temperature;humidity
11174;BME280;5643;50.856;12.088;2022-08-19T00:00:09;98988.56;;;26.82;100.00
11174;BME280;5643;50.856;12.088;2022-08-19T00:02:37;98992.75;;;27.01;100.00
11174;BME280;5643;50.856;12.088;2022-08-19T00:05:05;98995.78;;;26.93;100.00
11174;BME280;5643;50.856;12.088;2022-08-19T00:07:34;98999.72;;;27.26;98.36
11174;BME280;5643;50.856;12.088;2022-08-19T00:10:03;99001.44;;;26.50;100.00
11174;BME280;5643;50.856;12.088;2022-08-19T00:12:31;99004.19;;;26.32;100.00
11174;BME280;5643;50.856;12.088;2022-08-19T00:14:59;99002.94;;;26.35;100.00
11174;BME280;5643;50.856;12.088;2022-08-19T00:17:29;98997.41;;;25.88;100.00
11174;BME280;5643;50.856;12.088;2022-08-19T00:19:57;98985.63;;;25.77;100.00
11174;BME280;5643;50.856;12.088;2022-08-19T00:22:39;98977.78;;;25.64;100.00
11174;BME280;5643;50.856;12.088;2022-08-19T00:25:24;98964.28;;;25.23;100.00
11174;BME280;5643;50.856;12.088;2022-08-19T00:27:53;98958.22;;;25.94;100.00
11174;BME280;5643;50.856;12.088;2022-08-19T00:30:20;98952.53;;;25.90;100.00
11174;BME280;5643;50.856;12.088;2022-08-19T00:32:51;98957.88;;;26.02;100.00
11174;BME280;5643;50.856;12.088;2022-08-19T00:35:21;98947.00;;;25.73;100.00
11174;BME280;5643;50.856;12.088;2022-08-19T00:37:50;98939.16;;;25.90;100.00
11174;BME280;5643;50.856;12.088;2022-08-19T00:40:18;98930.97;;;26.38;100.00
11174;BME280;5643;50.856;12.088;2022-08-19T00:42:47;98937.06;;;26.04;100.00
11174;BME280;5643;50.856;12.088;2022-08-19T00:45:17;98928.66;;;26.65;100.00
11174;BME280;5643;50.856;12.088;2022-08-19T00:47:47;98939.38;;;26.88;100.00
11174;BME280;5643;50.856;12.088;2022-08-19T00:50:18;98929.09;;;26.15;100.00
11174;BME280;5643;50.856;12.088;2022-08-19T00:52:50;98924.47;;;26.34;100.00
11174;BME280;5643;50.856;12.088;2022-08-19T00:55:21;98914.59;;;26.46;100.00
11174;BME280;5643;50.856;12.088;2022-08-19T00:57:54;98909.44;;;26.68;100.00
11174;BME280;5643;50.856;12.088;2022-08-19T01:00:25;98904.69;;;25.82;100.00
11174;BME280;5643;50.856;12.088;2022-08-19T01:02:53;98902.06;;;26.17;100.00
11174;BME280;5643;50.856;12.088;2022-08-19T01:05:26;98902.31;;;26.85;100.00
11174;BME280;5643;50.856;12.088;2022-08-19T01:07:56;98892.53;;;26.09;100.00
11174;BME280;5643;50.856;12.088;2022-08-19T01:10:27;98891.91;;;25.54;100.00
11174;BME280;5643;50.856;12.088;2022-08-19T01:12:58;98885.59;;;25.48;100.00
11174;BME280;5643;50.856;12.088;2022-08-19T01:15:30;98875.94;;;25.47;100.00
11174;BME280;5643;50.856;12.088;2022-08-19T01:18:00;98866.78;;;25.55;100.00
11174;BME280;5643;50.856;12.088;2022-08-19T01:20:30;98864.38;;;25.65;100.00
11174;BME280;5643;50.856;12.088;2022-08-19T01:23:02;98869.56;;;24.82;100.00
11174;BME280;5643;50.856;12.088;2022-08-19T01:25:41;98871.84;;;26.40;100.00
11174;BME280;5643;50.856;12.088;2022-08-19T01:28:19;98870.53;;;26.19;100.00
11174;BME280;5643;50.856;12.088;2022-08-19T01:30:47;98869.63;;;26.25;100.00
11174;BME280;5643;50.856;12.088;2022-08-19T01:33:16;98869.72;;;25.65;100.00
11174;BME280;5643;50.856;12.088;2022-08-19T01:35:45;98877.75;;;25.65;100.00
11174;BME280;5643;50.856;12.088;2022-08-19T01:38:26;98869.22;;;25.98;100.00
11174;BME280;5643;50.856;12.088;2022-08-19T01:40:58;98870.63;;;25.29;100.00
11174;BME280;5643;50.856;12.088;2022-08-19T01:43:27;98873.31;;;24.75;100.00
11174;BME280;5643;50.856;12.088;2022-08-19T01:45:55;98866.28;;;25.46;100.00
11174;BME280;5643;50.856;12.088;2022-08-19T01:48:23;98861.94;;;25.34;100.00
11174;BME280;5643;50.856;12.088;2022-08-19T01:50:57;98872.78;;;25.80;100.00
11174;BME280;5643;50.856;12.088;2022-08-19T01:53:27;98881.38;;;25.41;100.00
11174;BME280;5643;50.856;12.088;2022-08-19T01:55:56;98880.78;;;25.39;100.00
11174;BME280;5643;50.856;12.088;2022-08-19T01:58:28;98883.91;;;25.66;100.00
11174;BME280;5643;50.856;12.088;2022-08-19T02:00:57;98886.56;;;25.36;100.00
11174;BME280;5643;50.856;12.088;2022-08-19T02:03:25;98876.44;;;25.56;100.00
11174;BME280;5643;50.856;12.088;2022-08-19T02:05:57;98877.84;;;25.29;100.00
11174;BME280;5643;50.856;12.088;2022-08-19T02:08:28;98879.88;;;24.97;100.00
11174;BME280;5643;50.856;12.088;2022-08-19T02:10:57;98870.28;;;24.71;100.00
11174;BME280;5643;50.856;12.088;2022-08-19T02:13:26;98865.78;;;24.90;100.00
11174;BME280;5643;50.856;12.088;2022-08-19T02:15:54;98856.53;;;24.92;100.00
11174;BME280;5643;50.856;12.088;2022-08-19T02:18:22;98853.81;;;25.59;100.00
11174;BME280;5643;50.856;12.088;2022-08-19T02:20:51;98860.63;;;25.55;100.00
11174;BME280;5643;50.856;12.088;2022-08-19T02:23:36;98860.44;;;25.68;100.00
11174;BME280;5643;50.856;12.088;2022-08-19T02:26:06;98852.50;;;25.61;100.00
11174;BME280;5643;50.856;12.088;2022-08-19T02:28:40;98844.66;;;26.01;100.00
11174;BME280;5643;50.856;12.088;2022-08-19T02:31:11;98849.00;;;26.49;100.00
11174;BME280;5643;50.856;12.088;2022-08-19T02:33:54;98855.63;;;26.58;100.00
11174;BME280;5643;50.856;12.088;2022-08-19T02:36:23;98864.31;;;25.83;100.00
11174;BME280;5643;50.856;12.088;2022-08-19T02:38:53;98871.72;;;26.23;100.00
11174;BME280;5643;50.856;12.088;2022-08-19T02:41:23;98879.75;;;26.93;100.00
11174;BME280;5643;50.856;12.088;2022-08-19T02:43:51;98886.69;;;27.05;100.00
11174;BME280;5643;50.856;12.088;2022-08-19T02:46:22;98905.25;;;26.95;100.00
11174;BME280;5643;50.856;12.088;2022-08-19T02:48:53;98903.84;;;26.69;100.00
11174;BME280;5643;50.856;12.088;2022-08-19T02:51:25;98915.38;;;26.82;100.00
11174;BME280;5643;50.856;12.088;2022-08-19T02:53:55;98922.94;;;27.08;100.00
11174;BME280;5643;50.856;12.088;2022-08-19T02:56:25;98932.75;;;26.91;100.00
11174;BME280;5643;50.856;12.088;2022-08-19T02:58:53;98931.78;;;27.48;100.00
11174;BME280;5643;50.856;12.088;2022-08-19T03:01:23;98936.78;;;27.17;100.00
11174;BME280;5643;50.856;12.088;2022-08-19T03:03:53;98941.59;;;27.03;100.00
11174;BME280;5643;50.856;12.088;2022-08-19T03:06:25;98945.31;;;27.02;100.00
11174;BME280;5643;50.856;12.088;2022-08-19T03:08:55;98946.09;;;27.14;100.00
11174;BME280;5643;50.856;12.088;2022-08-19T03:11:27;98938.44;;;26.71;100.00
11174;BME280;5643;50.856;12.088;2022-08-19T03:13:57;98939.84;;;27.08;100.00
11174;BME280;5643;50.856;12.088;2022-08-19T03:16:44;98946.25;;;27.07;100.00
11174;BME280;5643;50.856;12.088;2022-08-19T03:19:29;98954.53;;;27.06;100.00
11174;BME280;5643;50.856;12.088;2022-08-19T03:22:40;98954.88;;;26.86;100.00
11174;BME280;5643;50.856;12.088;2022-08-19T03:29:02;98958.97;;;27.00;100.00
11174;BME280;5643;50.856;12.088;2022-08-19T03:31:30;98962.91;;;27.09;100.00
11174;BME280;5643;50.856;12.088;2022-08-19T03:33:58;98964.63;;;26.57;100.00
11174;BME280;5643;50.856;12.088;2022-08-19T03:36:27;98971.31;;;26.90;100.00
11174;BME280;5643;50.856;12.088;2022-08-19T03:38:56;98974.91;;;27.19;100.00
11174;BME280;5643;50.856;12.088;2022-08-19T03:41:50;98979.34;;;26.90;100.00
11174;BME280;5643;50.856;12.088;2022-08-19T03:48:41;98961.06;;;26.52;100.00
11174;BME280;5643;50.856;12.088;2022-08-19T03:51:17;98959.66;;;26.72;100.00
11174;BME280;5643;50.856;12.088;2022-08-19T03:53:46;98958.59;;;26.85;100.00
11174;BME280;5643;50.856;12.088;2022-08-19T03:56:15;98963.88;;;27.03;100.00
11174;BME280;5643;50.856;12.088;2022-08-19T03:58:43;98964.66;;;27.04;100.00
11174;BME280;5643;50.856;12.088;2022-08-19T04:01:14;98965.47;;;26.81;100.00
11174;BME280;5643;50.856;12.088;2022-08-19T04:03:45;98974.34;;;26.17;100.00
11174;BME280;5643;50.856;12.088;2022-08-19T04:06:16;98977.94;;;25.81;100.00
11174;BME280;5643;50.856;12.088;2022-08-19T04:08:45;98991.03;;;25.89;100.00
11174;BME280;5643;50.856;12.088;2022-08-19T04:11:23;98988.47;;;26.24;100.00
11174;BME280;5643;50.856;12.088;2022-08-19T04:13:52;98982.34;;;26.35;100.00
11174;BME280;5643;50.856;12.088;2022-08-19T04:16:25;98967.16;;;25.87;100.00
11174;BME280;5643;50.856;12.088;2022-08-19T04:18:58;98975.91;;;25.95;100.00
11174;BME280;5643;50.856;12.088;2022-08-19T04:21:31;98962.00;;;25.74;100.00
11174;BME280;5643;50.856;12.088;2022-08-19T04:23:59;98958.16;;;26.12;100.00
11174;BME280;5643;50.856;12.088;2022-08-19T04:26:30;98950.09;;;26.53;100.00
11174;BME280;5643;50.856;12.088;2022-08-19T04:28:58;98961.50;;;25.47;100.00
11174;BME280;5643;50.856;12.088;2022-08-19T04:31:29;98956.69;;;25.86;100.00
11174;BME280;5643;50.856;12.088;2022-08-19T04:34:01;98959.16;;;26.29;100.00
11174;BME280;5643;50.856;12.088;2022-08-19T04:36:34;98951.25;;;25.44;100.00
11174;BME280;5643;50.856;12.088;2022-08-19T04:39:05;98953.00;;;25.99;100.00
11174;BME280;5643;50.856;12.088;2022-08-19T04:41:33;98959.78;;;25.35;100.00
11174;BME280;5643;50.856;12.088;2022-08-19T04:44:20;98952.69;;;25.77;100.00
11174;BME280;5643;50.856;12.088;2022-08-19T04:46:50;98957.06;;;26.01;100.00
11174;BME280;5643;50.856;12.088;2022-08-19T04:49:21;98959.88;;;26.06;100.00
11174;BME280;5643;50.856;12.088;2022-08-19T04:51:51;98967.50;;;25.91;100.00
11174;BME280;5643;50.856;12.088;2022-08-19T04:54:21;98966.19;;;26.12;100.00
11174;BME280;5643;50.856;12.088;2022-08-19T04:56:49;98971.03;;;26.33;100.00
11174;BME280;5643;50.856;12.088;2022-08-19T04:59:18;98972.47;;;26.06;100.00
11174;BME280;5643;50.856;12.088;2022-08-19T05:01:47;98973.28;;;26.18;100.00
11174;BME280;5643;50.856;12.088;2022-08-19T05:04:17;98977.41;;;26.32;100.00
11174;BME280;5643;50.856;12.088;2022-08-19T05:06:47;98975.84;;;26.54;100.00
11174;BME280;5643;50.856;12.088;2022-08-19T05:09:15;98974.44;;;25.69;100.00
11174;BME280;5643;50.856;12.088;2022-08-19T05:11:44;98960.28;;;25.80;100.00
11174;BME280;5643;50.856;12.088;2022-08-19T05:14:13;98961.56;;;25.41;100.00
11174;BME280;5643;50.856;12.088;2022-08-19T05:16:41;98960.00;;;25.70;100.00
11174;BME280;5643;50.856;12.088;2022-08-19T05:19:49;98960.81;;;25.70;100.00
11174;BME280;5643;50.856;12.088;2022-08-19T05:22:36;98950.34;;;25.99;100.00
11174;BME280;5643;50.856;12.088;2022-08-19T05:25:06;98956.78;;;25.79;100.00
11174;BME280;5643;50.856;12.088;2022-08-19T05:27:35;98959.00;;;24.98;100.00
11174;BME280;5643;50.856;12.088;2022-08-19T05:30:04;98959.22;;;25.15;100.00
11174;BME280;5643;50.856;12.088;2022-08-19T05:35:16;98959.13;;;25.58;100.00
11174;BME280;5643;50.856;12.088;2022-08-19T05:36:04;98959.75;;;26.31;100.00
11174;BME280;5643;50.856;12.088;2022-08-19T05:38:35;98963.91;;;25.37;100.00
11174;BME280;5643;50.856;12.088;2022-08-19T05:41:07;98963.97;;;25.49;100.00
11174;BME280;5643;50.856;12.088;2022-08-19T05:43:35;98967.31;;;25.26;100.00
11174;BME280;5643;50.856;12.088;2022-08-19T05:46:28;98965.44;;;24.90;100.00
11174;BME280;5643;50.856;12.088;2022-08-19T05:49:09;98965.16;;;25.83;100.00
11174;BME280;5643;50.856;12.088;2022-08-19T05:51:37;98982.16;;;26.18;100.00
11174;BME280;5643;50.856;12.088;2022-08-19T05:54:09;98988.88;;;26.09;100.00
11174;BME280;5643;50.856;12.088;2022-08-19T06:00:43;99007.63;;;26.09;100.00
11174;BME280;5643;50.856;12.088;2022-08-19T06:03:11;99009.94;;;26.47;100.00
11174;BME280;5643;50.856;12.088;2022-08-19T06:05:41;99023.44;;;25.81;100.00
11174;BME280;5643;50.856;12.088;2022-08-19T06:08:09;99024.84;;;25.83;100.00
11174;BME280;5643;50.856;12.088;2022-08-19T06:10:41;99036.22;;;26.92;100.00
11174;BME280;5643;50.856;12.088;2022-08-19T06:13:14;99046.81;;;25.85;100.00
11174;BME280;5643;50.856;12.088;2022-08-19T06:15:41;99046.47;;;26.12;100.00
11174;BME280;5643;50.856;12.088;2022-08-19T06:18:10;99043.56;;;26.43;100.00
11174;BME280;5643;50.856;12.088;2022-08-19T06:20:38;99041.69;;;26.32;100.00
11174;BME280;5643;50.856;12.088;2022-08-19T06:23:07;99055.59;;;26.52;100.00
11174;BME280;5643;50.856;12.088;2022-08-19T06:25:35;99066.72;;;26.38;100.00
11174;BME280;5643;50.856;12.088;2022-08-19T06:28:04;99070.47;;;26.37;100.00
11174;BME280;5643;50.856;12.088;2022-08-19T06:30:32;99073.09;;;26.78;100.00
11174;BME280;5643;50.856;12.088;2022-08-19T06:33:00;99070.94;;;26.87;100.00
11174;BME280;5643;50.856;12.088;2022-08-19T06:35:29;99071.88;;;27.15;100.00
11174;BME280;5643;50.856;12.088;2022-08-19T06:37:57;99080.50;;;27.06;100.00
11174;BME280;5643;50.856;12.088;2022-08-19T06:40:25;99085.19;;;27.10;100.00
11174;BME280;5643;50.856;12.088;2022-08-19T06:42:53;99086.69;;;26.95;100.00
11174;BME280;5643;50.856;12.088;2022-08-19T06:45:26;99089.09;;;26.32;100.00
11174;BME280;5643;50.856;12.088;2022-08-19T06:51:40;99097.91;;;26.73;100.00
11174;BME280;5643;50.856;12.088;2022-08-19T06:55:12;99101.84;;;26.59;100.00
11174;BME280;5643;50.856;12.088;2022-08-19T06:57:48;99095.75;;;26.94;100.00
11174;BME280;5643;50.856;12.088;2022-08-19T07:00:25;99107.69;;;26.56;100.00
11174;BME280;5643;50.856;12.088;2022-08-19T07:02:53;99100.97;;;26.17;100.00
11174;BME280;5643;50.856;12.088;2022-08-19T07:05:22;99110.84;;;26.65;100.00
11174;BME280;5643;50.856;12.088;2022-08-19T07:07:52;99108.88;;;26.12;100.00
11174;BME280;5643;50.856;12.088;2022-08-19T07:10:22;99100.38;;;26.34;100.00
11174;BME280;5643;50.856;12.088;2022-08-19T07:12:51;99099.13;;;26.18;100.00
11174;BME280;5643;50.856;12.088;2022-08-19T07:15:19;99095.88;;;26.57;100.00
11174;BME280;5643;50.856;12.088;2022-08-19T07:17:50;99083.50;;;26.15;100.00
11174;BME280;5643;50.856;12.088;2022-08-19T07:20:18;99091.00;;;25.95;100.00
11174;BME280;5643;50.856;12.088;2022-08-19T07:22:46;99090.63;;;26.39;100.00
11174;BME280;5643;50.856;12.088;2022-08-19T07:25:15;99087.28;;;26.55;100.00
11174;BME280;5643;50.856;12.088;2022-08-19T07:27:44;99094.53;;;26.25;100.00
11174;BME280;5643;50.856;12.088;2022-08-19T07:37:30;99109.22;;;26.34;100.00
11174;BME280;5643;50.856;12.088;2022-08-19T07:41:32;99115.38;;;25.68;100.00
11174;BME280;5643;50.856;12.088;2022-08-19T07:43:32;99113.69;;;26.22;100.00
11174;BME280;5643;50.856;12.088;2022-08-19T07:46:01;99120.81;;;25.80;100.00
11174;BME280;5643;50.856;12.088;2022-08-19T07:48:29;99113.09;;;26.20;100.00
11174;BME280;5643;50.856;12.088;2022-08-19T07:50:59;99121.75;;;26.22;100.00
11174;BME280;5643;50.856;12.088;2022-08-19T07:56:56;99129.59;;;26.17;100.00
11174;BME280;5643;50.856;12.088;2022-08-19T07:59:42;99133.94;;;26.00;100.00
11174;BME280;5643;50.856;12.088;2022-08-19T08:02:24;99136.06;;;26.46;100.00
11174;BME280;5643;50.856;12.088;2022-08-19T08:04:52;99139.09;;;26.49;100.00
11174;BME280;5643;50.856;12.088;2022-08-19T08:07:38;99138.91;;;26.14;100.00
11174;BME280;5643;50.856;12.088;2022-08-19T08:10:50;99148.28;;;26.53;100.00
11174;BME280;5643;50.856;12.088;2022-08-19T08:13:34;99144.78;;;26.41;100.00
11174;BME280;5643;50.856;12.088;2022-08-19T08:16:04;99150.97;;;26.53;100.00
11174;BME280;5643;50.856;12.088;2022-08-19T08:18:34;99149.41;;;25.79;100.00
11174;BME280;5643;50.856;12.088;2022-08-19T08:21:17;99148.91;;;26.25;100.00
11174;BME280;5643;50.856;12.088;2022-08-19T08:23:55;99151.53;;;26.44;100.00
11174;BME280;5643;50.856;12.088;2022-08-19T08:26:42;99154.69;;;26.52;100.00
11174;BME280;5643;50.856;12.088;2022-08-19T08:29:43;99151.00;;;26.17;100.00
11174;BME280;5643;50.856;12.088;2022-08-19T08:32:35;99159.34;;;27.28;100.00
11174;BME280;5643;50.856;12.088;2022-08-19T08:35:29;99154.94;;;27.69;99.34
11174;BME280;5643;50.856;12.088;2022-08-19T08:37:57;99158.50;;;26.74;100.00
11174;BME280;5643;50.856;12.088;2022-08-19T08:40:29;99161.97;;;26.63;100.00
11174;BME280;5643;50.856;12.088;2022-08-19T08:43:03;99157.88;;;26.61;100.00
11174;BME280;5643;50.856;12.088;2022-08-19T08:45:37;99156.72;;;26.57;100.00
11174;BME280;5643;50.856;12.088;2022-08-19T08:48:24;99146.16;;;26.73;100.00
11174;BME280;5643;50.856;12.088;2022-08-19T08:51:29;99151.50;;;25.77;100.00
11174;BME280;5643;50.856;12.088;2022-08-19T08:54:12;99151.78;;;26.06;100.00
11174;BME280;5643;50.856;12.088;2022-08-19T08:56:45;99158.16;;;25.86;100.00
11174;BME280;5643;50.856;12.088;2022-08-19T08:59:20;99154.06;;;26.68;100.00
11174;BME280;5643;50.856;12.088;2022-08-19T09:01:52;99160.72;;;26.36;100.00
11174;BME280;5643;50.856;12.088;2022-08-19T09:04:22;99173.19;;;27.25;100.00
11174;BME280;5643;50.856;12.088;2022-08-19T09:07:04;99162.00;;;25.54;100.00
11174;BME280;5643;50.856;12.088;2022-08-19T09:09:39;99149.53;;;26.21;100.00
11174;BME280;5643;50.856;12.088;2022-08-19T09:12:12;99138.84;;;25.66;100.00
11174;BME280;5643;50.856;12.088;2022-08-19T09:14:47;99156.81;;;25.34;100.00
11174;BME280;5643;50.856;12.088;2022-08-19T09:17:59;99144.13;;;25.73;100.00
11174;BME280;5643;50.856;12.088;2022-08-19T09:20:27;99136.81;;;26.64;100.00
11174;BME280;5643;50.856;12.088;2022-08-19T09:23:11;99144.75;;;27.12;100.00
11174;BME280;5643;50.856;12.088;2022-08-19T09:25:52;99147.25;;;26.24;100.00
11174;BME280;5643;50.856;12.088;2022-08-19T09:28:27;99142.25;;;26.28;100.00
11174;BME280;5643;50.856;12.088;2022-08-19T09:31:00;99152.66;;;26.18;100.00
11174;BME280;5643;50.856;12.088;2022-08-19T09:33:53;99142.16;;;26.94;100.00
11174;BME280;5643;50.856;12.088;2022-08-19T09:36:25;99145.38;;;25.70;100.00
11174;BME280;5643;50.856;12.088;2022-08-19T09:38:55;99159.38;;;25.91;100.00
11174;BME280;5643;50.856;12.088;2022-08-19T09:41:24;99159.81;;;26.06;100.00
11174;BME280;5643;50.856;12.088;2022-08-19T09:44:03;99162.56;;;25.99;100.00
11174;BME280;5643;50.856;12.088;2022-08-19T09:46:43;99166.88;;;24.83;100.00
11174;BME280;5643;50.856;12.088;2022-08-19T09:49:15;99165.16;;;25.20;100.00
11174;BME280;5643;50.856;12.088;2022-08-19T09:51:50;99163.16;;;25.15;100.00
11174;BME280;5643;50.856;12.088;2022-08-19T09:54:20;99172.38;;;25.19;100.00
11174;BME280;5643;50.856;12.088;2022-08-19T09:56:47;99160.03;;;25.68;100.00
11174;BME280;5643;50.856;12.088;2022-08-19T09:59:18;99153.13;;;25.78;100.00
11174;BME280;5643;50.856;12.088;2022-08-19T10:01:49;99149.09;;;25.87;100.00
11174;BME280;5643;50.856;12.088;2022-08-19T10:04:21;99165.88;;;26.49;100.00
11174;BME280;5643;50.856;12.088;2022-08-19T10:07:09;99166.03;;;25.63;100.00
11174;BME280;5643;50.856;12.088;2022-08-19T10:09:37;99174.91;;;26.00;100.00
11174;BME280;5643;50.856;12.088;2022-08-19T10:12:08;99173.44;;;26.22;100.00
11174;BME280;5643;50.856;12.088;2022-08-19T10:14:38;99189.06;;;25.39;100.00
11174;BME280;5643;50.856;12.088;2022-08-19T10:17:06;99192.63;;;25.58;100.00
11174;BME280;5643;50.856;12.088;2022-08-19T10:19:38;99191.00;;;25.32;100.00
11174;BME280;5643;50.856;12.088;2022-08-19T10:22:07;99196.22;;;24.89;100.00
11174;BME280;5643;50.856;12.088;2022-08-19T10:24:42;99188.66;;;26.22;100.00
11174;BME280;5643;50.856;12.088;2022-08-19T10:27:12;99183.09;;;26.05;100.00
11174;BME280;5643;50.856;12.088;2022-08-19T10:29:41;99198.19;;;25.57;100.00
11174;BME280;5643;50.856;12.088;2022-08-19T10:32:14;99184.84;;;26.11;100.00
11174;BME280;5643;50.856;12.088;2022-08-19T10:34:46;99192.47;;;26.62;95.62
11174;BME280;5643;50.856;12.088;2022-08-19T10:37:16;99200.41;;;26.21;98.97
11174;BME280;5643;50.856;12.088;2022-08-19T10:40:05;99188.44;;;26.23;100.00
11174;BME280;5643;50.856;12.088;2022-08-19T10:42:50;99196.91;;;26.39;98.87
11174;BME280;5643;50.856;12.088;2022-08-19T10:45:25;99198.56;;;25.60;100.00
11174;BME280;5643;50.856;12.088;2022-08-19T10:48:05;99197.88;;;26.08;100.00
11174;BME280;5643;50.856;12.088;2022-08-19T10:51:07;99211.56;;;25.32;100.00
11174;BME280;5643;50.856;12.088;2022-08-19T10:54:06;99221.66;;;25.55;96.97
11174;BME280;5643;50.856;12.088;2022-08-19T10:56:49;99215.72;;;25.96;97.83
11174;BME280;5643;50.856;12.088;2022-08-19T10:59:22;99222.81;;;25.65;98.24
11174;BME280;5643;50.856;12.088;2022-08-19T11:01:51;99217.25;;;26.21;94.91
11174;BME280;5643;50.856;12.088;2022-08-19T11:04:19;99221.81;;;26.03;92.92
11174;BME280;5643;50.856;12.088;2022-08-19T11:06:50;99226.66;;;25.20;99.03
11174;BME280;5643;50.856;12.088;2022-08-19T11:09:20;99216.72;;;25.52;97.38
11174;BME280;5643;50.856;12.088;2022-08-19T11:11:51;99214.03;;;25.58;96.45
11174;BME280;5643;50.856;12.088;2022-08-19T11:14:20;99214.16;;;26.43;94.88
11174;BME280;5643;50.856;12.088;2022-08-19T11:16:51;99206.56;;;26.21;93.93
11174;BME280;5643;50.856;12.088;2022-08-19T11:19:22;99203.66;;;26.59;94.45
11174;BME280;5643;50.856;12.088;2022-08-19T11:21:52;99210.19;;;26.63;88.65
11174;BME280;5643;50.856;12.088;2022-08-19T11:24:24;99227.31;;;25.40;98.82
11174;BME280;5643;50.856;12.088;2022-08-19T11:27:03;99221.91;;;25.22;100.00
11174;BME280;5643;50.856;12.088;2022-08-19T11:30:04;99212.16;;;26.38;91.04
11174;BME280;5643;50.856;12.088;2022-08-19T11:32:34;99219.03;;;25.73;90.41
11174;BME280;5643;50.856;12.088;2022-08-19T11:35:11;99208.28;;;25.98;88.22
11174;BME280;5643;50.856;12.088;2022-08-19T11:37:44;99205.22;;;25.76;91.04
11174;BME280;5643;50.856;12.088;2022-08-19T11:40:12;99198.47;;;25.92;93.35
11174;BME280;5643;50.856;12.088;2022-08-19T11:42:40;99203.97;;;26.33;88.71
11174;BME280;5643;50.856;12.088;2022-08-19T11:45:25;99195.94;;;25.78;94.87
11174;BME280;5643;50.856;12.088;2022-08-19T11:47:54;99197.28;;;26.06;93.31
11174;BME280;5643;50.856;12.088;2022-08-19T11:50:23;99195.44;;;26.24;93.40
11174;BME280;5643;50.856;12.088;2022-08-19T11:52:56;99206.03;;;25.52;100.00
11174;BME280;5643;50.856;12.088;2022-08-19T11:55:24;99196.69;;;26.40;94.79
11174;BME280;5643;50.856;12.088;2022-08-19T11:57:52;99183.94;;;26.54;91.09
11174;BME280;5643;50.856;12.088;2022-08-19T12:00:21;99191.63;;;26.50;92.94
11174;BME280;5643;50.856;12.088;2022-08-19T12:02:49;99185.69;;;26.30;95.99
11174;BME280;5643;50.856;12.088;2022-08-19T12:05:18;99184.50;;;27.27;89.57
11174;BME280;5643;50.856;12.088;2022-08-19T12:10:48;99190.69;;;27.16;89.55
11174;BME280;5643;50.856;12.088;2022-08-19T12:13:22;99189.59;;;27.05;90.60
11174;BME280;5643;50.856;12.088;2022-08-19T12:15:51;99193.34;;;27.16;90.64
11174;BME280;5643;50.856;12.088;2022-08-19T12:18:20;99184.28;;;27.87;85.11
11174;BME280;5643;50.856;12.088;2022-08-19T12:20:52;99186.59;;;26.84;91.56
11174;BME280;5643;50.856;12.088;2022-08-19T12:23:20;99184.03;;;27.30;90.29
11174;BME280;5643;50.856;12.088;2022-08-19T12:25:51;99182.81;;;27.68;86.08
11174;BME280;5643;50.856;12.088;2022-08-19T12:28:37;99184.75;;;26.84;93.67
11174;BME280;5643;50.856;12.088;2022-08-19T12:31:15;99187.63;;;26.05;97.62
11174;BME280;5643;50.856;12.088;2022-08-19T12:33:44;99194.75;;;25.93;98.45
11174;BME280;5643;50.856;12.088;2022-08-19T12:36:13;99197.91;;;25.40;100.00
11174;BME280;5643;50.856;12.088;2022-08-19T12:38:43;99188.94;;;26.14;97.73
11174;BME280;5643;50.856;12.088;2022-08-19T12:41:37;99193.72;;;26.30;94.77
11174;BME280;5643;50.856;12.088;2022-08-19T12:44:24;99197.56;;;27.35;87.99
11174;BME280;5643;50.856;12.088;2022-08-19T12:46:53;99199.19;;;28.06;81.37
11174;BME280;5643;50.856;12.088;2022-08-19T12:49:21;99207.44;;;27.65;85.23
11174;BME280;5643;50.856;12.088;2022-08-19T12:51:50;99204.47;;;26.90;89.61
11174;BME280;5643;50.856;12.088;2022-08-19T12:54:19;99206.16;;;27.14;86.90
11174;BME280;5643;50.856;12.088;2022-08-19T12:56:55;99208.66;;;26.56;89.86
11174;BME280;5643;50.856;12.088;2022-08-19T12:59:24;99205.63;;;27.35;81.97
11174;BME280;5643;50.856;12.088;2022-08-19T13:01:52;99212.53;;;26.42;88.82
11174;BME280;5643;50.856;12.088;2022-08-19T13:04:20;99211.59;;;26.66;86.28
11174;BME280;5643;50.856;12.088;2022-08-19T13:06:49;99210.00;;;27.60;81.73
11174;BME280;5643;50.856;12.088;2022-08-19T13:09:17;99211.00;;;26.94;85.37
11174;BME280;5643;50.856;12.088;2022-08-19T13:11:45;99209.28;;;27.76;80.51
11174;BME280;5643;50.856;12.088;2022-08-19T13:14:16;99224.28;;;27.30;84.17
11174;BME280;5643;50.856;12.088;2022-08-19T13:16:44;99224.78;;;26.67;86.09
11174;BME280;5643;50.856;12.088;2022-08-19T13:19:14;99219.75;;;27.42;82.92
11174;BME280;5643;50.856;12.088;2022-08-19T13:21:42;99221.22;;;27.15;82.60
11174;BME280;5643;50.856;12.088;2022-08-19T13:24:10;99219.63;;;27.37;82.00
11174;BME280;5643;50.856;12.088;2022-08-19T13:26:38;99215.94;;;26.97;82.53
11174;BME280;5643;50.856;12.088;2022-08-19T13:29:06;99211.31;;;26.56;87.71
11174;BME280;5643;50.856;12.088;2022-08-19T13:31:58;99217.00;;;27.19;81.81
11174;BME280;5643;50.856;12.088;2022-08-19T13:34:53;99218.50;;;26.25;87.07
11174;BME280;5643;50.856;12.088;2022-08-19T13:37:47;99212.53;;;26.90;83.73
11174;BME280;5643;50.856;12.088;2022-08-19T13:40:33;99203.66;;;26.89;85.14
11174;BME280;5643;50.856;12.088;2022-08-19T13:43:22;99215.44;;;26.70;84.91
11174;BME280;5643;50.856;12.088;2022-08-19T13:46:22;99213.69;;;26.94;83.01
11174;BME280;5643;50.856;12.088;2022-08-19T13:49:03;99208.38;;;26.46;84.10
11174;BME280;5643;50.856;12.088;2022-08-19T13:51:38;99194.91;;;27.24;80.71
11174;BME280;5643;50.856;12.088;2022-08-19T13:54:07;99201.56;;;27.44;78.73
11174;BME280;5643;50.856;12.088;2022-08-19T13:56:38;99195.72;;;26.83;86.35